Time;durP1;ratioP1;P1;durP2;ratioP2;P2;SDS_P1;SDS_P2;PMS_P1;PMS_P2;Temp;Humidity;BMP_temperature;BMP_pressure;BME280_temperature;BME280_humidity;BME280_pressure;Samples;Min_cycle;Max_cycle;Signal;HPM_P1;HPM_P2
2022/08/02 00:02:17;;;;;;;;;;;;;;;-145.18;100.00;46578.34;5011753;28;19917;-81
2022/08/02 00:04:43;;;;;;;;;;;;;;;-145.18;100.00;46560.78;5015796;28;20424;-82
2022/08/02 00:07:08;;;;;;;;;;;;;;;-145.18;100.00;46574.44;5011659;28;20374;-82
2022/08/02 00:09:33;;;;;;;;;;;;;;;-145.18;100.00;46572.50;5012442;28;20386;-81
2022/08/02 00:11:58;;;;;;;;;;;;;;;-145.18;100.00;46572.50;5011640;28;19917;-82
2022/08/02 00:14:24;;;;;;;;;;;;;;;-145.18;100.00;46568.59;5012403;28;19921;-82
2022/08/02 00:16:49;;;;;;;;;;;;;;;-145.18;100.00;46584.22;5011697;28;19914;-82
2022/08/02 00:19:14;;;;;;;;;;;;;;;-145.18;100.00;46578.34;5012000;28;19917;-81
2022/08/02 00:21:40;;;;;;;;;;;;;;;-145.18;100.00;46572.50;5011516;28;20366;-81
2022/08/02 00:24:05;;;;;;;;;;;;;;;-145.18;100.00;46570.53;4994194;28;20374;-80
2022/08/02 00:26:30;;;;;;;;;;;;;;;-145.18;100.00;46584.22;5011455;28;20377;-81
2022/08/02 00:28:55;;;;;;;;;;;;;;;-145.18;100.00;46580.31;5011979;28;20004;-80
2022/08/02 00:31:21;;;;;;;;;;;;;;;-145.18;100.00;46584.22;5011717;28;20016;-81
2022/08/02 00:33:46;;;;;;;;;;;;;;;-145.18;100.00;46578.34;5011514;28;19913;-81
2022/08/02 00:36:11;;;;;;;;;;;;;;;-145.18;100.00;46572.50;5011668;28;19921;-81
2022/08/02 00:38:37;;;;;;;;;;;;;;;-145.18;100.00;46576.41;5011419;28;19917;-81
2022/08/02 00:41:02;;;;;;;;;;;;;;;-145.18;100.00;46570.53;5011586;28;19921;-81
2022/08/02 00:43:27;;;;;;;;;;;;;;;-145.18;100.00;46586.16;5011366;28;20354;-81
2022/08/02 00:45:52;;;;;;;;;;;;;;;-145.18;100.00;46578.34;5011913;28;19917;-81
2022/08/02 00:48:18;;;;;;;;;;;;;;;-145.18;100.00;46592.03;5010992;28;19928;-81
2022/08/02 00:50:43;;;;;;;;;;;;;;;-145.18;100.00;46586.16;5011557;28;20416;-81
2022/08/02 00:53:08;;;;;;;;;;;;;;;-145.18;100.00;46580.31;5010960;28;19930;-80
2022/08/02 00:55:34;;;;;;;;;;;;;;;-145.18;100.00;46582.25;5011589;28;19914;-80
2022/08/02 00:57:59;;;;;;;;;;;;;;;-145.18;100.00;46584.22;5010548;28;19925;-81
2022/08/02 01:00:25;;;;;;;;;;;;;;;-145.18;100.00;46580.31;5012041;28;20359;-81
2022/08/02 01:02:50;;;;;;;;;;;;;;;-145.18;100.00;46582.25;5009734;28;19921;-80
2022/08/02 01:05:16;;;;;;;;;;;;;;;-145.18;100.00;46592.03;5011542;28;19980;-80
2022/08/02 01:07:41;;;;;;;;;;;;;;;-145.18;100.00;46586.16;5011064;28;19925;-80
2022/08/02 01:10:07;;;;;;;;;;;;;;;-145.18;100.00;46590.06;5011231;28;19919;-81
2022/08/02 01:12:32;;;;;;;;;;;;;;;-145.18;100.00;46590.06;5010688;28;20508;-81
2022/08/02 01:15:00;;;;;;;;;;;;;;;-145.18;100.00;46607.66;4993636;28;20015;-81
2022/08/02 01:17:33;;;;;;;;;;;;;;;-145.18;100.00;46613.50;5010736;28;20345;-82
2022/08/02 01:20:18;;;;;;;;;;;;;;;-145.18;100.00;46593.97;5011242;28;19917;-81
2022/08/02 01:23:06;;;;;;;;;;;;;;;-145.18;100.00;46609.59;5010711;28;20353;-80
2022/08/02 01:25:50;;;;;;;;;;;;;;;-145.18;100.00;46580.31;5011273;28;19913;-81
2022/08/02 01:28:25;;;;;;;;;;;;;;;-145.18;100.00;46580.31;5010509;28;19920;-80
2022/08/02 01:30:53;;;;;;;;;;;;;;;-145.18;100.00;46592.03;5030799;28;20300;-81
2022/08/02 01:33:18;;;;;;;;;;;;;;;-145.18;100.00;46597.88;5030432;28;19917;-81
2022/08/02 01:35:46;;;;;;;;;;;;;;;-145.18;100.00;46584.22;5030817;28;19967;-82
2022/08/02 01:38:18;;;;;;;;;;;;;;;-145.18;100.00;46588.13;5030344;28;19913;-81
2022/08/02 01:40:44;;;;;;;;;;;;;;;-145.18;100.00;46582.25;5031174;28;20381;-81
2022/08/02 01:43:10;;;;;;;;;;;;;;;-145.18;100.00;46597.88;5030544;28;19952;-81
2022/08/02 01:45:38;;;;;;;;;;;;;;;-145.18;100.00;46590.06;5031136;28;19913;-81
2022/08/02 01:48:04;;;;;;;;;;;;;;;-145.18;100.00;46578.34;5030117;28;19917;-81
2022/08/02 01:50:32;;;;;;;;;;;;;;;-145.18;100.00;46580.31;5011768;28;20428;-81
2022/08/02 01:52:59;;;;;;;;;;;;;;;-145.18;100.00;46580.31;5010724;28;19967;-81
2022/08/02 01:55:25;;;;;;;;;;;;;;;-145.18;100.00;46574.44;5011044;28;19917;-81
2022/08/02 01:57:59;;;;;;;;;;;;;;;-145.18;100.00;46590.06;5010670;28;19921;-80
2022/08/02 02:03:01;;;;;;;;;;;;;;;-145.18;100.00;46593.97;5216087;23;19921;-82
2022/08/02 02:05:28;;;;;;;;;;;;;;;-145.18;100.00;46590.06;5001983;28;20374;-81
2022/08/02 02:07:55;;;;;;;;;;;;;;;-145.18;100.00;46582.25;5001927;28;20385;-81
2022/08/02 02:10:23;;;;;;;;;;;;;;;-145.18;100.00;46586.16;5010953;28;19925;-80
2022/08/02 02:12:50;;;;;;;;;;;;;;;-145.18;100.00;46582.25;5010542;28;20348;-81
2022/08/02 02:15:16;;;;;;;;;;;;;;;-145.18;100.00;46576.41;5013567;28;19918;-81
2022/08/02 02:17:42;;;;;;;;;;;;;;;-145.18;100.00;46580.31;5014157;28;19924;-81
2022/08/02 02:20:17;;;;;;;;;;;;;;;-145.18;100.00;46578.34;5014165;28;20016;-81
2022/08/02 02:22:43;;;;;;;;;;;;;;;-145.18;100.00;46582.25;5014059;28;19968;-80
2022/08/02 02:25:09;;;;;;;;;;;;;;;-145.18;100.00;46582.25;5014084;28;19922;-81
2022/08/02 02:27:35;;;;;;;;;;;;;;;-145.18;100.00;46574.44;5013395;28;19927;-81
2022/08/02 02:30:01;;;;;;;;;;;;;;;-145.18;100.00;46588.13;5013442;28;19999;-82
2022/08/02 02:32:27;;;;;;;;;;;;;;;-145.18;100.00;46582.25;5013739;28;19913;-81
2022/08/02 02:34:54;;;;;;;;;;;;;;;-145.18;100.00;46574.44;5013780;28;19937;-81
2022/08/02 02:37:21;;;;;;;;;;;;;;;-145.18;100.00;46574.44;5013571;28;19984;-81
2022/08/02 02:39:49;;;;;;;;;;;;;;;-145.18;100.00;46576.41;5013540;28;19913;-81
2022/08/02 02:42:16;;;;;;;;;;;;;;;-145.18;100.00;46568.59;5013451;28;19991;-81
2022/08/02 02:44:42;;;;;;;;;;;;;;;-145.18;100.00;46574.44;5014269;28;20015;-81
2022/08/02 02:47:09;;;;;;;;;;;;;;;-145.18;100.00;46576.41;5013439;28;19921;-81
2022/08/02 02:49:35;;;;;;;;;;;;;;;-145.18;100.00;46574.44;5013948;28;19924;-80
2022/08/02 02:52:01;;;;;;;;;;;;;;;-145.18;100.00;46576.41;5012874;28;20297;-80
2022/08/02 02:54:27;;;;;;;;;;;;;;;-145.18;100.00;46572.50;5013455;28;19917;-81
2022/08/02 02:56:53;;;;;;;;;;;;;;;-145.18;100.00;46576.41;5012927;28;19920;-81
2022/08/02 02:59:18;;;;;;;;;;;;;;;-145.18;100.00;46572.50;5013647;28;19913;-81
2022/08/02 03:01:44;;;;;;;;;;;;;;;-145.18;100.00;46574.44;5013014;28;19921;-81
2022/08/02 03:04:10;;;;;;;;;;;;;;;-145.18;100.00;46576.41;5012729;28;20641;-81
2022/08/02 03:06:36;;;;;;;;;;;;;;;-145.18;100.00;46582.25;5013491;28;19918;-81
2022/08/02 03:09:02;;;;;;;;;;;;;;;-145.18;100.00;46574.44;5012968;28;19920;-81
2022/08/02 03:11:28;;;;;;;;;;;;;;;-145.18;100.00;46578.34;5013028;28;19918;-80
2022/08/02 03:13:58;;;;;;;;;;;;;;;-145.18;100.00;46584.22;5012903;28;19932;-81
2022/08/02 03:16:23;;;;;;;;;;;;;;;-145.18;100.00;46582.25;5012853;28;19964;-81
2022/08/02 03:18:49;;;;;;;;;;;;;;;-145.18;100.00;46576.41;5012823;28;19952;-81
2022/08/02 03:21:14;;;;;;;;;;;;;;;-145.18;100.00;46570.53;5012816;28;19913;-81
2022/08/02 03:23:40;;;;;;;;;;;;;;;-145.18;100.00;46572.50;5012786;28;19932;-82
2022/08/02 03:26:06;;;;;;;;;;;;;;;-145.18;100.00;46574.44;5011918;28;19913;-81
2022/08/02 03:28:31;;;;;;;;;;;;;;;-145.18;100.00;46574.44;4994975;28;19913;-81
2022/08/02 03:30:57;;;;;;;;;;;;;;;-145.18;100.00;46576.41;5012892;28;19960;-80
2022/08/02 03:33:23;;;;;;;;;;;;;;;-145.18;100.00;46568.59;5012325;28;19922;-81
2022/08/02 03:35:49;;;;;;;;;;;;;;;-145.18;100.00;46574.44;5012875;28;20289;-81
2022/08/02 03:38:16;;;;;;;;;;;;;;;-145.18;100.00;46576.41;5012024;28;20344;-81
2022/08/02 03:40:42;;;;;;;;;;;;;;;-145.18;100.00;46570.53;5012781;28;20310;-81
2022/08/02 03:43:08;;;;;;;;;;;;;;;-145.18;100.00;46570.53;5011951;28;19959;-81
2022/08/02 03:45:35;;;;;;;;;;;;;;;-145.18;100.00;46566.63;5012792;28;19960;-81
2022/08/02 03:48:00;;;;;;;;;;;;;;;-145.18;100.00;46562.72;4994537;28;19920;-80
2022/08/02 03:50:25;;;;;;;;;;;;;;;-145.18;100.00;46562.72;5012288;28;19921;-81
2022/08/02 03:52:51;;;;;;;;;;;;;;;-145.18;100.00;46564.69;5012061;28;20029;-81
2022/08/02 03:55:16;;;;;;;;;;;;;;;-145.18;100.00;46566.63;5012716;28;20016;-81
2022/08/02 03:57:41;;;;;;;;;;;;;;;-145.18;100.00;46562.72;5011604;28;20361;-80
2022/08/02 04:00:12;;;;;;;;;;;;;;;-145.18;100.00;46568.59;5012593;28;20364;-80
2022/08/02 04:02:37;;;;;;;;;;;;;;;-145.18;100.00;46615.47;5011664;28;20365;-81
2022/08/02 04:05:02;;;;;;;;;;;;;;;-145.18;100.00;46627.19;5011384;28;19917;-80
2022/08/02 04:07:28;;;;;;;;;;;;;;;-145.18;100.00;46635.00;5011040;28;19913;-81
2022/08/02 04:09:53;;;;;;;;;;;;;;;-145.18;100.00;46635.00;5011385;28;20024;-80
2022/08/02 04:12:18;;;;;;;;;;;;;;;-145.18;100.00;46625.22;5010920;28;19913;-80
2022/08/02 04:14:43;;;;;;;;;;;;;;;-145.18;100.00;46625.22;5015189;28;19930;-81
2022/08/02 04:17:10;;;;;;;;;;;;;;;-145.18;100.00;46650.63;5029394;28;19924;-81
2022/08/02 04:19:41;;;;;;;;;;;;;;;-145.18;100.00;46660.41;5029759;28;19913;-81
2022/08/02 04:22:12;;;;;;;;;;;;;;;-145.18;100.00;46652.59;5010358;28;19921;-81
2022/08/02 04:24:40;;;;;;;;;;;;;;;-145.18;100.00;46670.16;5029544;28;19917;-82
2022/08/02 04:27:06;;;;;;;;;;;;;;;-145.18;100.00;46670.16;5022871;28;20483;-81
2022/08/02 04:29:31;;;;;;;;;;;;;;;-145.18;100.00;46683.84;5018760;28;19917;-81
2022/08/02 04:31:57;;;;;;;;;;;;;;;-145.18;100.00;46683.84;5015520;28;19917;-81
2022/08/02 04:34:22;;;;;;;;;;;;;;;-145.18;100.00;46683.84;5010314;28;20067;-82
2022/08/02 04:36:48;;;;;;;;;;;;;;;-145.18;100.00;46679.94;5024716;28;19917;-83
2022/08/02 04:39:14;;;;;;;;;;;;;;;-145.18;100.00;46679.94;5015986;28;19925;-81
2022/08/02 04:41:40;;;;;;;;;;;;;;;-145.18;100.00;46677.97;5011564;28;19924;-80
2022/08/02 04:44:05;;;;;;;;;;;;;;;-145.18;100.00;46677.97;5002665;28;19930;-81
2022/08/02 04:46:31;;;;;;;;;;;;;;;-145.18;100.00;46677.97;5010311;28;20361;-81
2022/08/02 04:48:56;;;;;;;;;;;;;;;-145.18;100.00;46683.84;5009180;28;19929;-82
2022/08/02 04:51:21;;;;;;;;;;;;;;;-145.18;100.00;46681.88;5014921;28;19932;-82
2022/08/02 04:53:46;;;;;;;;;;;;;;;-145.18;100.00;46685.78;5029784;28;19921;-82
2022/08/02 04:56:12;;;;;;;;;;;;;;;-145.18;100.00;46677.97;5019623;28;19930;-82
2022/08/02 04:58:37;;;;;;;;;;;;;;;-145.18;100.00;46681.88;5008328;28;20285;-83
2022/08/02 05:01:02;;;;;;;;;;;;;;;-145.18;100.00;46681.88;5011826;28;20651;-82
2022/08/02 05:03:27;;;;;;;;;;;;;;;-145.18;100.00;46677.97;4971396;28;1258161;-82
2022/08/02 05:05:52;;;;;;;;;;;;;;;-145.18;100.00;46679.94;5022155;28;19929;-81
2022/08/02 05:08:18;;;;;;;;;;;;;;;-145.18;100.00;46679.94;5023360;28;19913;-83
2022/08/02 05:10:43;;;;;;;;;;;;;;;-145.18;100.00;46674.06;5031156;28;19932;-82
2022/08/02 05:13:08;;;;;;;;;;;;;;;-145.18;100.00;46683.84;5030392;28;20384;-82
2022/08/02 05:15:34;;;;;;;;;;;;;;;-145.18;100.00;46681.88;5024017;28;19917;-81
2022/08/02 05:17:59;;;;;;;;;;;;;;;-145.18;100.00;46676.03;5015024;28;20370;-82
2022/08/02 05:20:24;;;;;;;;;;;;;;;-145.18;100.00;46676.03;5006261;28;19944;-80
2022/08/02 05:22:49;;;;;;;;;;;;;;;-145.18;100.00;46679.94;5010699;28;20007;-80
2022/08/02 05:25:15;;;;;;;;;;;;;;;-145.18;100.00;46679.94;5009865;28;19980;-81
2022/08/02 05:27:40;;;;;;;;;;;;;;;-145.18;100.00;46672.13;5016645;28;20309;-80
2022/08/02 05:30:06;;;;;;;;;;;;;;;-145.18;100.00;46677.97;5017977;28;20373;-80
2022/08/02 05:32:32;;;;;;;;;;;;;;;-145.18;100.00;46670.16;5030734;28;19976;-81
2022/08/02 05:34:58;;;;;;;;;;;;;;;-145.18;100.00;46683.84;5030240;28;20369;-80
2022/08/02 05:37:24;;;;;;;;;;;;;;;-145.18;100.00;46681.88;5019743;28;19914;-81
2022/08/02 05:39:49;;;;;;;;;;;;;;;-145.18;100.00;46679.94;5011051;28;19924;-81
2022/08/02 05:42:14;;;;;;;;;;;;;;;-145.18;100.00;46687.75;5010984;28;20305;-81
2022/08/02 05:44:39;;;;;;;;;;;;;;;-145.18;100.00;46681.88;5011160;28;20271;-82
2022/08/02 05:47:05;;;;;;;;;;;;;;;-145.18;100.00;46683.84;4992926;28;19917;-81
2022/08/02 05:49:30;;;;;;;;;;;;;;;-145.18;100.00;46676.03;5012693;28;19917;-80
2022/08/02 05:52:13;;;;;;;;;;;;;;;-145.18;100.00;46679.94;5013978;28;19921;-80
2022/08/02 05:54:38;;;;;;;;;;;;;;;-145.18;100.00;46681.88;5013262;28;19923;-81
2022/08/02 05:57:05;;;;;;;;;;;;;;;-145.18;100.00;46677.97;5000213;28;19917;-81
2022/08/02 05:59:44;;;;;;;;;;;;;;;-145.18;100.00;46672.13;5004764;28;19913;-81
2022/08/02 06:02:23;;;;;;;;;;;;;;;-145.18;100.00;46687.75;5014083;28;20312;-80
2022/08/02 06:04:55;;;;;;;;;;;;;;;-145.18;100.00;46677.97;5014309;28;19921;-81
2022/08/02 06:07:21;;;;;;;;;;;;;;;-145.18;100.00;46676.03;5014465;28;19920;-81
2022/08/02 06:09:47;;;;;;;;;;;;;;;-145.18;100.00;46676.03;5008415;28;19917;-81
2022/08/02 06:12:15;;;;;;;;;;;;;;;-145.18;100.00;46672.13;4994610;28;19918;-80
2022/08/02 06:14:40;;;;;;;;;;;;;;;-145.18;100.00;46668.22;4993523;28;19913;-81
2022/08/02 06:17:06;;;;;;;;;;;;;;;-145.18;100.00;46677.97;4994522;28;19964;-80
2022/08/02 06:19:32;;;;;;;;;;;;;;;-145.18;100.00;46674.06;4994012;28;20275;-80
2022/08/02 06:22:13;;;;;;;;;;;;;;;-145.18;100.00;46672.13;4993950;28;19914;-81
2022/08/02 06:24:39;;;;;;;;;;;;;;;-145.18;100.00;46674.06;4994431;28;19917;-82
2022/08/02 06:27:05;;;;;;;;;;;;;;;-145.18;100.00;46672.13;4992828;28;19925;-81
2022/08/02 06:29:30;;;;;;;;;;;;;;;-145.18;100.00;46672.13;5030925;28;19913;-81
2022/08/02 06:31:57;;;;;;;;;;;;;;;-145.18;100.00;46668.22;5017545;28;19925;-81
2022/08/02 06:34:22;;;;;;;;;;;;;;;-145.18;100.00;46670.16;5021237;28;19917;-82
2022/08/02 06:37:05;;;;;;;;;;;;;;;-145.18;100.00;46670.16;5033917;28;20266;-81
2022/08/02 06:39:31;;;;;;;;;;;;;;;-145.18;100.00;46672.13;5033555;28;20288;-80
2022/08/02 06:41:57;;;;;;;;;;;;;;;-145.18;100.00;46668.22;5033562;28;19919;-82
2022/08/02 06:44:23;;;;;;;;;;;;;;;-145.18;100.00;46666.25;5020175;28;19960;-81
2022/08/02 06:46:48;;;;;;;;;;;;;;;-145.18;100.00;46666.25;5013205;28;19956;-81
2022/08/02 06:49:13;;;;;;;;;;;;;;;-145.18;100.00;46666.25;5012876;28;19917;-81
2022/08/02 06:51:39;;;;;;;;;;;;;;;-145.18;100.00;46664.31;5013585;28;19949;-80
2022/08/02 06:54:04;;;;;;;;;;;;;;;-145.18;100.00;46668.22;5013001;28;19917;-82
2022/08/02 06:56:30;;;;;;;;;;;;;;;-145.18;100.00;46668.22;5012504;28;19925;-81
2022/08/02 06:58:55;;;;;;;;;;;;;;;-145.18;100.00;46662.34;5012909;28;20389;-81
2022/08/02 07:01:20;;;;;;;;;;;;;;;-145.18;100.00;46668.22;5013004;28;19924;-80
2022/08/02 07:03:45;;;;;;;;;;;;;;;-145.18;100.00;46668.22;4995739;28;19963;-82
2022/08/02 07:06:11;;;;;;;;;;;;;;;-145.18;100.00;46660.41;5012723;28;19921;-81
2022/08/02 07:08:37;;;;;;;;;;;;;;;-145.18;100.00;46672.13;5012710;28;19969;-80
2022/08/02 07:11:06;;;;;;;;;;;;;;;-145.18;100.00;46662.34;5013091;28;20016;-80
2022/08/02 07:13:32;;;;;;;;;;;;;;;-145.18;100.00;46662.34;5012360;28;19922;-81
2022/08/02 07:15:57;;;;;;;;;;;;;;;-145.18;100.00;46660.41;5012952;28;19967;-80
2022/08/02 07:18:23;;;;;;;;;;;;;;;-145.18;100.00;46664.31;5011858;28;19919;-81
2022/08/02 07:20:48;;;;;;;;;;;;;;;-145.18;100.00;46666.25;5012413;28;20011;-81
2022/08/02 07:23:13;;;;;;;;;;;;;;;-145.18;100.00;46664.31;5012443;28;19917;-81
2022/08/02 07:25:39;;;;;;;;;;;;;;;-145.18;100.00;46664.31;5012565;28;19956;-81
2022/08/02 07:28:05;;;;;;;;;;;;;;;-145.18;100.00;46664.31;5011818;28;19921;-81
2022/08/02 07:30:31;;;;;;;;;;;;;;;-145.18;100.00;46670.16;5012877;28;19913;-80
2022/08/02 07:32:57;;;;;;;;;;;;;;;-145.18;100.00;46666.25;5012330;28;19959;-82
2022/08/02 07:35:23;;;;;;;;;;;;;;;-145.18;100.00;46666.25;5011809;28;19973;-80
2022/08/02 07:37:48;;;;;;;;;;;;;;;-145.18;100.00;46664.31;5012721;28;19921;-81
2022/08/02 07:40:14;;;;;;;;;;;;;;;-145.18;100.00;46672.13;5012236;28;19913;-81
2022/08/02 07:42:39;;;;;;;;;;;;;;;-145.18;100.00;46666.25;5012055;28;19918;-81
2022/08/02 07:45:04;;;;;;;;;;;;;;;-145.18;100.00;46664.31;5011405;28;20053;-80
2022/08/02 07:47:30;;;;;;;;;;;;;;;-145.18;100.00;46664.31;5012422;28;19963;-81
2022/08/02 07:49:55;;;;;;;;;;;;;;;-145.18;100.00;46666.25;5012230;28;19917;-81
2022/08/02 07:52:20;;;;;;;;;;;;;;;-145.18;100.00;46668.22;5012102;28;20294;-82
2022/08/02 07:54:45;;;;;;;;;;;;;;;-145.18;100.00;46666.25;5011514;28;19932;-81
2022/08/02 07:57:11;;;;;;;;;;;;;;;-145.18;100.00;46664.31;5012325;28;19917;-80
2022/08/02 07:59:36;;;;;;;;;;;;;;;-145.18;100.00;46666.25;5012205;28;20281;-81
2022/08/02 08:02:01;;;;;;;;;;;;;;;-145.18;100.00;46666.25;5012055;28;19921;-81
2022/08/02 08:04:27;;;;;;;;;;;;;;;-145.18;100.00;46670.16;5011551;28;19928;-81
2022/08/02 08:06:52;;;;;;;;;;;;;;;-145.18;100.00;46660.41;5021927;28;19975;-81
2022/08/02 08:09:18;;;;;;;;;;;;;;;-145.18;100.00;46668.22;5031781;28;19909;-82
2022/08/02 08:11:44;;;;;;;;;;;;;;;-145.18;100.00;46656.50;5031140;28;19913;-80
2022/08/02 08:14:09;;;;;;;;;;;;;;;-145.18;100.00;46666.25;5015523;28;19917;-82
2022/08/02 08:16:34;;;;;;;;;;;;;;;-145.18;100.00;46652.59;5011551;28;19929;-81
2022/08/02 08:19:01;;;;;;;;;;;;;;;-145.18;100.00;46646.72;5011461;28;19917;-81
2022/08/02 08:21:26;;;;;;;;;;;;;;;-145.18;100.00;46642.81;5011945;28;19921;-80
2022/08/02 08:23:51;;;;;;;;;;;;;;;-145.18;100.00;46621.31;5011219;28;19921;-81
2022/08/02 08:26:16;;;;;;;;;;;;;;;-145.18;100.00;46638.91;5011980;28;19918;-82
2022/08/02 08:28:42;;;;;;;;;;;;;;;-145.18;100.00;46625.22;5024341;28;19978;-80
2022/08/02 08:31:07;;;;;;;;;;;;;;;-145.18;100.00;46621.31;5020697;28;19921;-81
2022/08/02 08:33:33;;;;;;;;;;;;;;;-145.18;100.00;46556.88;5011105;28;19921;-81
2022/08/02 08:35:58;;;;;;;;;;;;;;;-145.18;100.00;46539.28;5011583;28;20404;-81
2022/08/02 08:38:24;;;;;;;;;;;;;;;-145.18;100.00;46539.28;5011025;28;19977;-80
2022/08/02 08:40:49;;;;;;;;;;;;;;;-145.18;100.00;46539.28;5029812;28;19963;-81
2022/08/02 08:43:14;;;;;;;;;;;;;;;-145.18;100.00;46541.25;5030650;28;20003;-81
2022/08/02 08:45:42;;;;;;;;;;;;;;;-145.18;100.00;46537.34;5011257;28;19924;-81
2022/08/02 08:48:12;;;;;;;;;;;;;;;-145.18;100.00;46539.28;5011022;28;19922;-80
2022/08/02 08:50:38;;;;;;;;;;;;;;;-145.18;100.00;46539.28;5011631;28;19921;-82
2022/08/02 08:53:07;;;;;;;;;;;;;;;-145.18;100.00;46543.19;5010495;28;19995;-80
2022/08/02 08:55:34;;;;;;;;;;;;;;;-145.18;100.00;46543.19;5014924;28;20336;-81
2022/08/02 08:57:59;;;;;;;;;;;;;;;-145.18;100.00;46539.28;5030841;28;19979;-81
2022/08/02 09:00:26;;;;;;;;;;;;;;;-145.18;100.00;46537.34;5030693;28;19923;-81
2022/08/02 09:02:52;;;;;;;;;;;;;;;-145.18;100.00;46539.28;5030360;28;19929;-81
2022/08/02 09:05:17;;;;;;;;;;;;;;;-145.18;100.00;46535.38;5030350;28;20293;-80
2022/08/02 09:07:46;;;;;;;;;;;;;;;-145.18;100.00;46525.63;5030981;28;19922;-79
2022/08/02 09:10:30;;;;;;;;;;;;;;;-145.18;100.00;46523.66;5030374;28;19913;-79
2022/08/02 09:13:05;;;;;;;;;;;;;;;-145.18;100.00;46533.44;5030623;28;20374;-79
2022/08/02 09:15:30;;;;;;;;;;;;;;;-145.18;100.00;46547.09;5030517;28;20012;-79
2022/08/02 09:17:55;;;;;;;;;;;;;;;-145.18;100.00;46541.25;5030462;28;20011;-79
2022/08/02 09:20:20;;;;;;;;;;;;;;;-145.18;100.00;46533.44;5030373;28;19940;-79
2022/08/02 09:23:04;;;;;;;;;;;;;;;-145.18;100.00;46556.88;5030720;28;20676;-79
2022/08/02 09:25:30;;;;;;;;;;;;;;;-145.18;100.00;46560.78;5034203;28;19913;-79
2022/08/02 09:27:55;;;;;;;;;;;;;;;-145.18;100.00;46547.09;5034891;28;19924;-79
2022/08/02 09:30:21;;;;;;;;;;;;;;;-145.18;100.00;46574.44;5034493;28;20262;-79
2022/08/02 09:32:47;;;;;;;;;;;;;;;-145.18;100.00;46648.69;5034843;28;19964;-81
2022/08/02 09:35:14;;;;;;;;;;;;;;;-145.18;100.00;46607.66;5033831;28;19917;-81
2022/08/02 09:37:39;;;;;;;;;;;;;;;-145.18;100.00;47013.97;5034774;28;19944;-80
2022/08/02 09:40:05;;;;;;;;;;;;;;;-145.18;100.00;47103.81;5034512;28;20391;-81
2022/08/02 09:42:31;;;;;;;;;;;;;;;-145.18;100.00;47060.84;5034683;28;19917;-81
2022/08/02 09:44:57;;;;;;;;;;;;;;;-145.18;100.00;47023.72;5033892;28;20376;-82
2022/08/02 09:47:23;;;;;;;;;;;;;;;-145.18;100.00;47015.91;5034313;28;19913;-81
2022/08/02 09:49:48;;;;;;;;;;;;;;;-145.18;100.00;47006.16;5034103;28;19928;-81
2022/08/02 09:52:13;;;;;;;;;;;;;;;-145.18;100.00;47008.09;5033911;28;19917;-80
2022/08/02 09:54:39;;;;;;;;;;;;;;;-145.18;100.00;46996.38;5034030;28;19916;-81
2022/08/02 09:57:04;;;;;;;;;;;;;;;-145.18;100.00;47002.25;5034285;28;19956;-79
2022/08/02 09:59:30;;;;;;;;;;;;;;;-145.18;100.00;46996.38;5034018;28;19924;-79
2022/08/02 10:01:56;;;;;;;;;;;;;;;-145.18;100.00;46998.34;5034002;28;19913;-80
2022/08/02 10:04:23;;;;;;;;;;;;;;;-145.18;100.00;46990.53;5033754;28;20437;-80
2022/08/02 10:06:49;;;;;;;;;;;;;;;-145.18;100.00;47008.09;5034069;28;19917;-79
2022/08/02 10:09:15;;;;;;;;;;;;;;;-145.18;100.00;47012.00;5033244;28;19913;-79
2022/08/02 10:11:41;;;;;;;;;;;;;;;-145.18;100.00;47012.00;5033994;28;19913;-79
2022/08/02 10:14:08;;;;;;;;;;;;;;;-145.18;100.00;47004.19;5033442;28;20442;-80
2022/08/02 10:16:34;;;;;;;;;;;;;;;-145.18;100.00;47008.09;5034020;28;20297;-79
2022/08/02 10:19:01;;;;;;;;;;;;;;;-145.18;100.00;46992.47;5033448;28;19917;-79
2022/08/02 10:21:32;;;;;;;;;;;;;;;-145.18;100.00;47006.16;5033869;28;19944;-79
2022/08/02 10:24:17;;;;;;;;;;;;;;;-145.18;100.00;47013.97;5033403;28;19913;-79
2022/08/02 10:26:44;;;;;;;;;;;;;;;-145.18;100.00;47004.19;5033551;28;19917;-79
2022/08/02 10:29:14;;;;;;;;;;;;;;;-145.18;100.00;46986.63;5033177;28;19924;-79
2022/08/02 10:31:50;;;;;;;;;;;;;;;-145.18;100.00;46976.84;5033780;28;19924;-79
2022/08/02 10:34:17;;;;;;;;;;;;;;;-145.18;100.00;46969.03;5032864;28;19967;-79
2022/08/02 10:36:44;;;;;;;;;;;;;;;-145.18;100.00;46969.03;5033861;28;20032;-79
2022/08/02 10:39:10;;;;;;;;;;;;;;;-145.18;100.00;46978.81;5033057;28;19974;-79
2022/08/02 10:41:40;;;;;;;;;;;;;;;-145.18;100.00;46967.09;5033468;28;19936;-79
2022/08/02 10:44:05;;;;;;;;;;;;;;;-145.18;100.00;46963.19;5032978;28;20337;-80
2022/08/02 10:46:34;;;;;;;;;;;;;;;-145.18;100.00;46978.81;5033567;28;19913;-79
2022/08/02 10:49:00;;;;;;;;;;;;;;;-145.18;100.00;46967.09;5033029;28;19967;-79
2022/08/02 10:51:45;;;;;;;;;;;;;;;-145.18;100.00;46969.03;5033480;28;19948;-80
2022/08/02 10:54:16;;;;;;;;;;;;;;;-145.18;100.00;46953.41;5032260;28;19917;-79
2022/08/02 10:56:45;;;;;;;;;;;;;;;-145.18;100.00;46947.53;5033391;28;20013;-79
2022/08/02 10:59:24;;;;;;;;;;;;;;;-145.18;99.74;46941.69;5032706;28;19916;-79
2022/08/02 11:01:49;;;;;;;;;;;;;;;-145.18;100.00;46963.19;5024413;28;20417;-79
2022/08/02 11:04:15;;;;;;;;;;;;;;;-145.18;100.00;46978.81;5012299;28;19929;-81
2022/08/02 11:06:58;;;;;;;;;;;;;;;-145.18;100.00;46971.00;5013416;28;19918;-81
2022/08/02 11:09:32;;;;;;;;;;;;;;;-145.18;100.00;46951.44;5012873;28;19920;-79
2022/08/02 11:12:05;;;;;;;;;;;;;;;-145.18;100.00;46939.72;5017781;28;20476;-79
2022/08/02 11:14:31;;;;;;;;;;;;;;;-145.18;98.81;46957.31;5032523;28;20289;-79
2022/08/02 11:16:56;;;;;;;;;;;;;;;-145.18;92.72;46957.31;5032959;28;20400;-79
2022/08/02 11:19:23;;;;;;;;;;;;;;;-145.18;95.91;46941.69;5032058;28;19967;-79
2022/08/02 11:22:00;;;;;;;;;;;;;;;-145.18;90.11;46959.25;5032714;28;20018;-79
2022/08/02 11:24:30;;;;;;;;;;;;;;;-145.18;98.15;46941.69;5032105;28;19917;-82
2022/08/02 11:26:56;;;;;;;;;;;;;;;-145.18;100.00;46963.19;5032896;28;20011;-81
2022/08/02 11:29:30;;;;;;;;;;;;;;;-145.18;100.00;46953.41;5014320;28;20012;-79
2022/08/02 11:31:55;;;;;;;;;;;;;;;-145.18;100.00;46971.00;5032693;28;19917;-78
2022/08/02 11:34:24;;;;;;;;;;;;;;;-145.18;98.14;46965.13;5032089;28;20395;-79
2022/08/02 11:36:50;;;;;;;;;;;;;;;-145.18;100.00;46957.31;5014922;28;19917;-79
2022/08/02 11:39:19;;;;;;;;;;;;;;;-145.18;100.00;46961.22;5031859;28;19921;-79
2022/08/02 11:41:49;;;;;;;;;;;;;;;-145.18;100.00;46959.25;5032130;28;19921;-79
2022/08/02 11:44:14;;;;;;;;;;;;;;;-145.18;100.00;46939.72;5031818;28;19920;-80
2022/08/02 11:46:40;;;;;;;;;;;;;;;-145.18;100.00;46941.69;5031792;28;19948;-79
2022/08/02 11:49:12;;;;;;;;;;;;;;;-145.18;100.00;46947.53;5031662;28;19917;-79
2022/08/02 11:51:37;;;;;;;;;;;;;;;-145.18;100.00;46941.69;5032126;28;19917;-79
2022/08/02 11:54:03;;;;;;;;;;;;;;;-145.18;100.00;46931.91;5031659;28;19917;-79
2022/08/02 11:56:33;;;;;;;;;;;;;;;-145.18;100.00;46949.50;5032284;28;19909;-78
2022/08/02 11:59:04;;;;;;;;;;;;;;;-145.18;100.00;46967.09;5031629;28;19919;-80
2022/08/02 12:01:30;;;;;;;;;;;;;;;-145.18;100.00;46961.22;5031960;28;19909;-80
2022/08/02 12:03:59;;;;;;;;;;;;;;;-145.18;97.92;46945.59;5031526;28;19987;-79
2022/08/02 12:06:26;;;;;;;;;;;;;;;-145.18;100.00;46924.09;5032067;28;19929;-79
2022/08/02 12:08:57;;;;;;;;;;;;;;;-145.18;93.08;46928.00;5029551;28;20538;-79
2022/08/02 12:11:22;;;;;;;;;;;;;;;-145.18;84.25;46908.47;5011674;28;19976;-80
2022/08/02 12:13:47;;;;;;;;;;;;;;;-145.18;79.63;46908.47;5011577;28;20397;-81
2022/08/02 12:21:41;;;;;;;;;;;;;;;-145.18;80.68;46892.84;5011649;28;20325;-81
2022/08/02 12:24:06;;;;;;;;;;;;;;;-145.18;86.20;46906.53;5011266;28;19917;-81
2022/08/02 12:26:40;;;;;;;;;;;;;;;-145.18;77.85;46904.56;5011698;28;20007;-79